• Join FlightAware (Why Join?)
  • Login
  • US Flag 
11:49AM EDT


 

Airport Tracker/Info


-or-


 

Live Flight TrackerFlight Track Log ✈ UCA3597 ✈ 25-Sep-2013 ✈ KBGM - KIAD

Flight Track Log - Related Links

Times and Time Zones

All times are in EDT time to prevent confusion due to time zone crossing. See the UCA3597 flight status page for this flight to view local times or setup timezone preferences in your user account.

Time Position Orientation Groundspeed Altitude Reporting Facility
EDT Latitude Longitude Course Direction KTS MPH feet Rate Location/Type
07:24PM 42.2239 -76.0606 212° Southwest 161 185 4,100  Level New York Center
07:25PM 42.1808 -76.0961 211° Southwest 147 169 5,600 1,620 Climbing New York Center
07:26PM 42.1353 -76.1372 214° Southwest 172 198 7,300 5,160 Climbing New York Center
07:27PM 42.0878 -76.1725 209° Southwest 195 224 16,000 1,500 Climbing New York Center
07:28PM 41.8397 -76.1549 212° Southwest  Level Estimated
07:28PM 42.0381 -76.2158 213° Southwest 200 230 10,400  Level New York Center
07:29PM 41.9883 -76.2564 211° Southwest 206 237 11,600 1,260 Climbing New York Center
07:30PM 41.9383 -76.2969 211° Southwest 214 246 13,000 1,320 Climbing New York Center
07:31PM 41.8953 -76.3325 212° Southwest 214 246 14,300 1,260 Climbing New York Center
07:32PM 41.8453 -76.3728 211° Southwest 214 246 15,500 840 Climbing New York Center
07:33PM 41.7936 -76.4131 210° Southwest 214 246 16,000 240 Climbing New York Center
07:34PM 41.7264 -76.4683 212° Southwest 242 278 16,000  Level New York Center
07:35PM 41.6678 -76.5133 210° Southwest 263 303 16,000  Level New York Center
07:36PM 41.5958 -76.5406 196° South 269 310 16,000  Level New York Center
07:37PM 41.5175 -76.5669 194° South 269 310 16,000  Level New York Center
07:38PM 41.4472 -76.5942 196° South 269 310 16,000  Level New York Center
07:39PM 41.3797 -76.6161 194° South 269 310 16,000  Level New York Center
07:40PM 41.3181 -76.6411 197° South 263 303 16,000  Level New York Center
07:41PM 41.2394 -76.6672 194° South 263 303 16,000  Level New York Center
07:42PM 41.1800 -76.6925 198° South 263 303 16,000  Level New York Center
07:43PM 41.1100 -76.7194 196° South 263 303 16,000  Level New York Center
07:44PM 41.0400 -76.7436 195° South 268 308 16,000  Level New York Center
07:45PM 40.9719 -76.7678 195° South 268 308 16,000  Level New York Center
07:46PM 40.9039 -76.7947 197° South 263 303 16,000  Level New York Center
07:47PM 40.8339 -76.8189 195° South 263 303 16,000  Level New York Center
07:48PM 40.7597 -76.8450 195° South 258 297 16,000  Level New York Center
07:49PM 40.6917 -76.8719 197° South 258 297 16,000  Level New York Center
07:50PM 40.6239 -76.8933 193° South 253 291 16,000  Level New York Center
07:51PM 40.5558 -76.9200 197° South 253 291 16,000  Level New York Center
07:52PM 40.4897 -76.9442 196° South 248 285 16,000  Level New York Center
07:53PM 40.4200 -76.9653 193° South 248 285 16,000 -360 Level New York Center
07:54PM 40.3497 -76.9917 196° South 253 291 15,400 -840 Descending New York Center
07:55PM 40.2794 -77.0181 196° South 263 303 14,400 -900 Descending New York Center
07:56PM 40.2075 -77.0414 194° South 269 310 13,600 -900 Descending New York Center
07:58PM 40.0500 -77.1000 196° South 268 308 11,600 -960 Descending Potomac TRACON
07:59PM 39.9833 -77.1167 191° South 264 304 10,700 -900 Descending Potomac TRACON
08:00PM 39.9167 -77.1500 201° Southwest 270 311 10,000 -900 Descending Potomac TRACON
08:01PM 39.8500 -77.1667 191° South 265 305 9,100 -540 Descending Potomac TRACON
08:02PM 39.7833 -77.1833 191° South 258 297 9,000 -60 Descending Potomac TRACON
08:03PM 39.7167 -77.2167 201° Southwest 252 290 9,000 -480 Level Potomac TRACON
08:04PM 39.6667 -77.2667 218° Southwest 243 280 8,100 -960 Descending Potomac TRACON
08:05PM 39.6167 -77.3500 232° Southwest 255 293 7,200 -600 Descending Potomac TRACON
08:06PM 39.5667 -77.3833 207° Southwest 245 282 7,000 -120 Descending Potomac TRACON
08:07PM 39.5000 -77.3833 180° South 248 285 7,000  Level Potomac TRACON
08:08PM 39.4333 -77.3667 169° South 245 282 7,000 -240 Level Potomac TRACON
08:09PM 39.3667 -77.3667 180° South 245 282 6,600 -840 Descending Potomac TRACON
08:10PM 39.3000 -77.3667 180° South 251 289 5,500 -1,080 Descending Potomac TRACON
08:11PM 39.2333 -77.3667 180° South 257 296 4,500 -780 Descending Potomac TRACON
08:12PM 39.1667 -77.3667 180° South 256 295 4,000 -300 Descending Potomac TRACON
08:13PM 39.0833 -77.3500 171° South 256 295 4,000  Level Potomac TRACON
08:14PM 39.0167 -77.3500 180° South 255 293 4,000  Level Potomac TRACON
08:15PM 38.9333 -77.3500 180° South 256 295 4,000  Level Potomac TRACON
08:16PM 38.8667 -77.3500 180° South 250 288 4,000 -180 Level Potomac TRACON
08:17PM 38.8167 -77.3667 195° South 203 234 3,700 -840 Descending Potomac TRACON
08:18PM 38.8167 -77.4333 270° West 195 224 2,300 -1,080 Descending Potomac TRACON
08:19PM 38.8500 -77.4333 360° North 145 167 1,600 -720 Descending Potomac TRACON
08:20PM 38.8833 -77.4333 360° North 115 132 1,000 -600 Descending Potomac TRACON
08:22PM 38.9333 -77.4500 349° North  Level FlightAware Approximate